createdAt,value
2018-11-03T00:02:04.068Z,20.13
2018-11-03T00:04:47.377Z,20.13
2018-11-03T00:07:29.958Z,22.13
2018-11-03T00:10:12.364Z,20.93
2018-11-03T00:12:55.100Z,20.93
2018-11-03T00:15:37.940Z,21.10
2018-11-03T00:18:19.938Z,21.13
2018-11-03T00:21:03.702Z,21.47
2018-11-03T00:23:45.741Z,19.73
2018-11-03T00:26:28.232Z,20.90
2018-11-03T00:29:11.072Z,23.10
2018-11-03T00:31:53.229Z,21.13
2018-11-03T00:34:35.667Z,19.73
2018-11-03T00:37:18.227Z,20.77
2018-11-03T00:40:00.659Z,21.33
2018-11-03T00:42:44.133Z,20.87
2018-11-03T00:45:26.651Z,20.47
2018-11-03T00:48:09.089Z,18.47
2018-11-03T00:50:52.031Z,19.67
2018-11-03T00:53:34.053Z,18.20
2018-11-03T00:56:17.741Z,18.93
2018-11-03T00:59:00.001Z,18.77
2018-11-03T01:01:42.553Z,20.77
2018-11-03T01:04:25.466Z,19.27
2018-11-03T01:07:07.470Z,17.87
2018-11-03T01:09:51.032Z,18.77
2018-11-03T01:12:33.226Z,19.73
2018-11-03T01:15:16.622Z,19.60
2018-11-03T01:17:59.073Z,19.70
2018-11-03T01:20:41.604Z,19.03
2018-11-03T01:23:24.390Z,20.03
2018-11-03T01:26:07.042Z,19.47
2018-11-03T01:28:49.619Z,18.70
2018-11-03T01:31:31.890Z,18.27
2018-11-03T01:34:13.970Z,18.70
2018-11-03T01:36:56.425Z,19.47
2018-11-03T01:39:39.197Z,18.73
2018-11-03T01:42:21.614Z,18.87
2018-11-03T01:45:04.008Z,17.80
2018-11-03T01:47:47.677Z,17.77
2018-11-03T01:50:29.877Z,19.00
2018-11-03T01:53:12.246Z,21.20
2018-11-03T01:55:56.123Z,21.30
2018-11-03T01:58:38.357Z,21.23
2018-11-03T02:01:20.750Z,19.83
2018-11-03T02:04:05.641Z,22.27
2018-11-03T02:06:47.817Z,23.70
2018-11-03T02:09:30.105Z,20.67
2018-11-03T02:12:13.945Z,19.93
2018-11-03T02:14:56.010Z,19.83
2018-11-03T02:17:38.478Z,20.20
2018-11-03T02:20:20.884Z,21.17
2018-11-03T02:23:03.254Z,22.43
2018-11-03T02:25:45.721Z,22.47
2018-11-03T02:28:28.121Z,20.70
2018-11-03T02:31:10.727Z,21.37
2018-11-03T02:33:53.056Z,24.63
2018-11-03T02:36:35.860Z,22.27
2018-11-03T02:39:18.253Z,24.23
2018-11-03T02:42:00.867Z,26.50
2018-11-03T02:44:43.451Z,23.30
2018-11-03T02:47:26.068Z,22.33
2018-11-03T02:50:10.525Z,22.43
2018-11-03T02:52:52.818Z,23.70
2018-11-03T02:55:35.169Z,23.03
2018-11-03T02:58:17.889Z,22.70
2018-11-03T03:01:00.092Z,22.00
2018-11-03T03:03:42.476Z,22.30
2018-11-03T03:06:25.222Z,21.50
2018-11-03T03:09:08.002Z,21.47
2018-11-03T03:11:50.681Z,21.90
2018-11-03T03:14:33.534Z,22.27
2018-11-03T03:17:15.617Z,21.37
2018-11-03T03:19:58.091Z,21.37
2018-11-03T03:22:40.905Z,21.90
2018-11-03T03:25:23.038Z,23.33
2018-11-03T03:28:05.777Z,23.00
2018-11-03T03:30:47.979Z,25.40
2018-11-03T03:33:30.118Z,24.93
2018-11-03T03:36:12.706Z,23.77
2018-11-03T03:38:58.624Z,21.07
2018-11-03T03:41:40.906Z,18.73
2018-11-03T03:44:23.151Z,20.20
2018-11-03T03:47:06.217Z,20.67
2018-11-03T03:49:48.076Z,19.13
2018-11-03T03:52:30.669Z,20.07
2018-11-03T03:55:13.326Z,22.17
2018-11-03T03:57:55.483Z,22.13
2018-11-03T04:00:37.749Z,27.73
2018-11-03T04:03:20.537Z,23.77
2018-11-03T04:06:02.746Z,21.60
2018-11-03T04:08:45.077Z,23.67
2018-11-03T04:11:27.835Z,25.73
2018-11-03T04:14:09.878Z,26.40
2018-11-03T04:16:52.165Z,26.10
2018-11-03T04:19:34.919Z,26.27
2018-11-03T04:22:17.048Z,27.67
2018-11-03T04:24:59.544Z,26.67
2018-11-03T04:27:42.081Z,26.03
2018-11-03T04:30:24.202Z,22.00
2018-11-03T04:33:06.702Z,23.83
2018-11-03T04:35:49.397Z,26.97
2018-11-03T04:38:31.484Z,24.37
2018-11-03T04:41:14.034Z,28.30
2018-11-03T04:43:57.551Z,26.13
2018-11-03T04:46:39.913Z,26.20
2018-11-03T04:49:22.348Z,27.40
2018-11-03T04:52:05.286Z,26.33
2018-11-03T04:54:47.254Z,26.93
2018-11-03T04:57:30.089Z,28.77
2018-11-03T05:00:12.299Z,30.47
2018-11-03T05:02:54.858Z,28.33
2018-11-03T05:05:37.683Z,24.30
2018-11-03T05:08:19.746Z,30.13
2018-11-03T05:11:02.176Z,31.97
2018-11-03T05:13:52.705Z,33.43
2018-11-03T05:16:35.048Z,35.10
2018-11-03T05:19:17.416Z,40.17
2018-11-03T05:22:01.202Z,38.73
2018-11-03T05:24:43.264Z,35.03
2018-11-03T05:27:25.706Z,32.93
2018-11-03T05:30:08.901Z,32.90
2018-11-03T05:32:50.700Z,35.30
2018-11-03T05:35:33.181Z,35.70
2018-11-03T05:38:16.872Z,26.80
2018-11-03T05:40:59.229Z,26.67
2018-11-03T05:43:41.693Z,25.70
2018-11-03T05:46:26.640Z,27.97
2018-11-03T05:49:08.956Z,27.93
2018-11-03T05:51:51.121Z,29.53
2018-11-03T05:54:33.789Z,33.63
2018-11-03T05:57:15.955Z,34.47
2018-11-03T06:00:00.164Z,38.17
2018-11-03T06:02:42.085Z,37.20
2018-11-03T06:05:24.537Z,35.80
2018-11-03T06:08:07.152Z,37.10
2018-11-03T06:10:49.219Z,32.93
2018-11-03T06:13:31.697Z,32.10
2018-11-03T06:16:14.982Z,33.80
2018-11-03T06:18:57.686Z,29.83
2018-11-03T06:21:40.195Z,31.33
2018-11-03T06:24:22.912Z,32.87
2018-11-03T06:27:05.172Z,33.03
2018-11-03T06:29:47.532Z,39.07
2018-11-03T06:32:30.334Z,38.73
2018-11-03T06:35:12.455Z,32.97
2018-11-03T06:37:54.752Z,33.17
2018-11-03T06:40:37.913Z,37.27
2018-11-03T06:43:19.777Z,35.23
2018-11-03T06:46:02.036Z,33.43
2018-11-03T06:48:44.474Z,35.17
2018-11-03T06:51:26.962Z,38.87
2018-11-03T06:54:09.475Z,41.07
2018-11-03T06:56:51.695Z,43.67
2018-11-03T06:59:33.993Z,42.37
2018-11-03T07:02:17.749Z,42.20
2018-11-03T07:04:59.814Z,41.07
2018-11-03T07:07:42.345Z,42.20
2018-11-03T07:10:24.918Z,42.10
2018-11-03T07:13:07.174Z,38.97
2018-11-03T07:15:49.553Z,34.23
2018-11-03T07:18:32.233Z,35.27
2018-11-03T07:21:14.346Z,33.93
2018-11-03T07:23:56.943Z,37.00
2018-11-03T07:26:39.200Z,33.50
2018-11-03T07:29:21.685Z,33.80
2018-11-03T07:32:04.102Z,28.53
2018-11-03T07:34:46.573Z,28.40
2018-11-03T07:37:28.928Z,27.50
2018-11-03T07:40:11.749Z,25.97
2018-11-03T07:42:53.967Z,25.53
2018-11-03T07:45:36.001Z,23.63
2018-11-03T07:48:18.499Z,25.40
2018-11-03T07:51:01.170Z,23.17
2018-11-03T07:53:43.332Z,23.37
2018-11-03T07:56:28.060Z,21.93
2018-11-03T07:59:10.914Z,19.33
2018-11-03T08:01:52.894Z,19.33
2018-11-03T08:04:35.625Z,17.87
2018-11-03T08:07:17.801Z,17.50
2018-11-03T08:10:01.395Z,17.37
2018-11-03T08:12:45.709Z,15.13
2018-11-03T08:15:28.537Z,16.60
2018-11-03T08:18:11.694Z,17.83
2018-11-03T08:20:53.605Z,15.73
2018-11-03T08:23:36.415Z,15.47
2018-11-03T08:26:18.567Z,17.20
2018-11-03T08:29:01.344Z,16.77
2018-11-03T08:31:44.147Z,18.87
2018-11-03T08:34:26.271Z,18.70
2018-11-03T08:37:09.285Z,18.13
2018-11-03T08:39:53.109Z,18.50
2018-11-03T08:42:35.491Z,18.23
2018-11-03T08:45:18.013Z,19.10
2018-11-03T08:48:01.504Z,18.57
2018-11-03T08:50:45.253Z,18.40
2018-11-03T08:53:26.963Z,19.80
2018-11-03T08:56:10.365Z,18.00
2018-11-03T08:58:52.841Z,19.73
2018-11-03T09:01:35.972Z,20.43
2018-11-03T09:04:19.638Z,19.27
2018-11-03T09:07:02.050Z,20.90
2018-11-03T09:09:44.657Z,20.07
2018-11-03T09:12:26.730Z,20.67
2018-11-03T09:15:11.869Z,19.90
2018-11-03T09:17:54.193Z,19.27
2018-11-03T09:20:37.134Z,20.83
2018-11-03T09:23:21.160Z,19.63
2018-11-03T09:26:03.171Z,17.40
2018-11-03T09:28:46.364Z,18.30
2018-11-03T09:31:28.878Z,19.83
2018-11-03T09:34:11.613Z,17.33
2018-11-03T09:36:54.781Z,18.60
2018-11-03T09:39:38.028Z,19.23
2018-11-03T09:42:20.590Z,17.83
2018-11-03T09:45:04.241Z,18.10
2018-11-03T09:47:47.309Z,19.00
2018-11-03T09:50:29.963Z,15.33
2018-11-03T09:53:13.841Z,18.23
2018-11-03T09:55:56.349Z,16.10
2018-11-03T09:58:39.011Z,17.10
2018-11-03T10:01:21.690Z,14.60
2018-11-03T10:04:04.298Z,18.13
2018-11-03T10:06:46.873Z,17.03
2018-11-03T10:09:29.073Z,13.67
2018-11-03T10:12:11.471Z,15.50
2018-11-03T10:14:54.941Z,16.30
2018-11-03T10:17:38.186Z,17.50
2018-11-03T10:20:21.766Z,16.93
2018-11-03T10:23:04.765Z,15.27
2018-11-03T10:25:47.098Z,16.27
2018-11-03T10:28:29.924Z,15.00
2018-11-03T10:31:12.616Z,16.23
2018-11-03T10:33:55.005Z,16.33
2018-11-03T10:36:37.357Z,14.73
2018-11-03T10:39:20.989Z,13.60
2018-11-03T10:42:03.693Z,14.87
2018-11-03T10:44:45.593Z,12.80
2018-11-03T10:47:29.497Z,13.13
2018-11-03T10:50:14.106Z,12.57
2018-11-03T10:52:56.654Z,13.53
2018-11-03T10:55:38.794Z,14.60
2018-11-03T10:58:22.368Z,13.13
2018-11-03T11:01:10.521Z,12.07
2018-11-03T11:03:59.880Z,11.73
2018-11-03T11:06:47.889Z,12.27
2018-11-03T11:09:36.707Z,11.50
2018-11-03T11:12:24.693Z,13.43
2018-11-03T11:15:09.883Z,14.17
2018-11-03T11:17:53.967Z,17.57
2018-11-03T11:20:38.631Z,14.40
2018-11-03T11:23:21.267Z,14.93
2018-11-03T11:26:03.991Z,15.53
2018-11-03T11:28:46.804Z,15.23
2018-11-03T11:31:29.003Z,15.40
2018-11-03T11:34:12.502Z,16.50
2018-11-03T11:36:56.142Z,16.03
2018-11-03T11:39:38.633Z,18.17
2018-11-03T11:42:22.357Z,16.57
2018-11-03T11:45:05.509Z,15.83
2018-11-03T11:47:49.183Z,14.93
2018-11-03T11:50:35.540Z,15.10
2018-11-03T11:53:17.781Z,15.23
2018-11-03T11:56:02.138Z,16.23
2018-11-03T11:58:44.627Z,15.93
2018-11-03T12:01:27.744Z,14.63
2018-11-03T12:04:10.329Z,14.90
2018-11-03T12:06:52.997Z,15.07
2018-11-03T12:09:35.405Z,13.70
2018-11-03T12:12:19.219Z,12.80
2018-11-03T12:15:01.506Z,12.23
2018-11-03T12:17:44.926Z,8.60
2018-11-03T12:20:27.325Z,9.67
2018-11-03T12:23:10.718Z,7.77
2018-11-03T12:25:54.373Z,5.60
2018-11-03T12:28:37.594Z,6.43
2018-11-03T12:31:21.377Z,6.37
2018-11-03T12:34:03.396Z,6.87
2018-11-03T12:36:49.029Z,5.27
2018-11-03T12:39:31.369Z,4.80
2018-11-03T12:42:14.517Z,5.10
2018-11-03T12:45:00.145Z,7.70
2018-11-03T12:47:42.984Z,7.30
2018-11-03T12:50:28.080Z,7.10
2018-11-03T12:53:10.501Z,8.00
2018-11-03T12:55:53.285Z,7.50
2018-11-03T12:58:36.241Z,6.67
2018-11-03T13:01:18.898Z,7.37
2018-11-03T13:04:01.898Z,7.50
2018-11-03T13:06:44.716Z,7.03
2018-11-03T13:09:28.999Z,6.17
2018-11-03T13:12:12.327Z,5.87
2018-11-03T13:14:54.202Z,6.13
2018-11-03T13:17:39.162Z,5.93
2018-11-03T13:20:21.476Z,5.80
2018-11-03T13:23:09.102Z,7.00
2018-11-03T13:25:55.356Z,7.47
2018-11-03T13:28:37.981Z,7.97
2018-11-03T13:31:19.894Z,7.63
2018-11-03T13:34:03.253Z,7.90
2018-11-03T13:36:45.697Z,6.37
2018-11-03T13:39:28.091Z,6.10
2018-11-03T13:42:11.768Z,4.97
2018-11-03T13:44:53.814Z,4.53
2018-11-03T13:47:38.043Z,5.07
2018-11-03T13:50:20.676Z,4.93
2018-11-03T13:53:03.329Z,5.53
2018-11-03T13:55:48.052Z,5.90
2018-11-03T13:58:30.289Z,6.40
2018-11-03T14:01:13.252Z,6.17
2018-11-03T14:03:55.916Z,6.27
2018-11-03T14:06:38.219Z,7.03
2018-11-03T14:09:21.161Z,6.00
2018-11-03T14:12:05.036Z,6.30
2018-11-03T14:14:47.412Z,4.90
2018-11-03T14:17:30.767Z,4.90
2018-11-03T14:20:14.228Z,4.60
2018-11-03T14:22:56.596Z,4.33
2018-11-03T14:25:40.026Z,5.33
2018-11-03T14:28:24.044Z,5.33
2018-11-03T14:31:07.210Z,5.03
2018-11-03T14:33:49.852Z,5.37
2018-11-03T14:36:32.628Z,5.60
2018-11-03T14:39:16.444Z,6.30
2018-11-03T14:41:58.742Z,6.63
2018-11-03T14:44:41.191Z,7.00
2018-11-03T14:47:24.040Z,6.90
2018-11-03T14:50:08.244Z,8.20
2018-11-03T14:52:51.214Z,7.87
2018-11-03T14:55:33.565Z,8.50
2018-11-03T14:58:16.618Z,8.60
2018-11-03T15:00:59.294Z,8.20
2018-11-03T15:03:41.453Z,7.27
2018-11-03T15:06:25.065Z,7.73
2018-11-03T15:09:09.656Z,8.07
2018-11-03T15:11:54.670Z,8.37
2018-11-03T15:14:37.997Z,7.90
2018-11-03T15:17:19.818Z,7.97
2018-11-03T15:20:02.512Z,8.47
2018-11-03T15:22:44.872Z,8.33
2018-11-03T15:25:27.149Z,8.40
2018-11-03T15:28:09.823Z,8.80
2018-11-03T15:30:51.859Z,8.60
2018-11-03T15:33:35.364Z,8.07
2018-11-03T15:36:17.734Z,9.00
2018-11-03T15:39:01.368Z,9.67
2018-11-03T15:41:44.372Z,9.03
2018-11-03T15:44:26.753Z,8.70
2018-11-03T15:47:09.259Z,10.00
2018-11-03T15:49:51.617Z,10.10
2018-11-03T15:52:34.999Z,10.07
2018-11-03T15:55:17.585Z,10.33
2018-11-03T15:57:59.929Z,11.60
2018-11-03T16:00:42.920Z,11.90
2018-11-03T16:03:25.361Z,13.97
2018-11-03T16:06:07.224Z,14.10
2018-11-03T16:08:50.621Z,11.10
2018-11-03T16:11:34.055Z,12.17
2018-11-03T16:14:17.281Z,11.40
2018-11-03T16:17:01.099Z,11.47
2018-11-03T16:19:43.348Z,13.93
2018-11-03T16:22:25.506Z,12.37
2018-11-03T16:25:09.116Z,16.10
2018-11-03T16:27:52.067Z,17.33
2018-11-03T16:30:34.049Z,18.17
2018-11-03T16:33:17.782Z,16.57
2018-11-03T16:36:00.358Z,17.63
2018-11-03T16:38:44.050Z,15.53
2018-11-03T16:41:26.098Z,16.53
2018-11-03T16:44:09.683Z,18.83
2018-11-03T16:46:51.856Z,18.27
2018-11-03T16:49:34.286Z,16.77
2018-11-03T16:52:18.359Z,18.73
2018-11-03T16:55:01.699Z,20.83
2018-11-03T16:57:44.654Z,18.77
2018-11-03T17:00:27.407Z,21.03
2018-11-03T17:03:09.226Z,21.27
2018-11-03T17:05:53.977Z,19.73
2018-11-03T17:08:36.953Z,20.80
2018-11-03T17:11:19.778Z,20.53
2018-11-03T17:14:05.006Z,20.40
2018-11-03T17:16:48.532Z,19.97
2018-11-03T17:19:30.909Z,18.97
2018-11-03T17:22:13.952Z,18.93
2018-11-03T17:24:56.113Z,19.30
2018-11-03T17:27:39.521Z,18.17
2018-11-03T17:30:22.821Z,19.50
2018-11-03T17:33:05.638Z,18.57
2018-11-03T17:35:48.149Z,17.63
2018-11-03T17:38:30.441Z,20.27
2018-11-03T17:41:13.501Z,21.00
2018-11-03T17:43:56.739Z,22.13
2018-11-03T17:46:39.489Z,23.33
2018-11-03T17:49:22.969Z,23.90
2018-11-03T17:52:06.430Z,22.57
2018-11-03T17:54:49.247Z,22.27
2018-11-03T17:57:32.849Z,21.23
2018-11-03T18:00:17.145Z,22.10
2018-11-03T18:03:00.278Z,19.73
2018-11-03T18:05:43.948Z,20.83
2018-11-03T18:08:27.259Z,19.50
2018-11-03T18:11:10.413Z,17.90
2018-11-03T18:13:52.950Z,17.07
2018-11-03T18:16:35.793Z,16.50
2018-11-03T18:19:19.456Z,16.50
2018-11-03T18:22:02.146Z,17.10
2018-11-03T18:24:45.149Z,16.80
2018-11-03T18:27:27.177Z,16.97
2018-11-03T18:30:11.070Z,17.07
2018-11-03T18:32:53.141Z,16.80
2018-11-03T18:35:37.393Z,18.17
2018-11-03T18:38:20.347Z,20.53
2018-11-03T18:41:02.744Z,18.80
2018-11-03T18:43:45.569Z,18.43
2018-11-03T18:46:29.233Z,18.50
2018-11-03T18:49:11.725Z,17.50
2018-11-03T18:51:55.495Z,17.87
2018-11-03T18:54:37.877Z,17.47
2018-11-03T18:57:20.733Z,17.23
2018-11-03T19:00:02.909Z,20.03
2018-11-03T19:02:45.218Z,18.07
2018-11-03T19:05:29.896Z,20.67
2018-11-03T19:08:12.112Z,20.33
2018-11-03T19:10:59.051Z,19.53
2018-11-03T19:13:42.604Z,21.50
2018-11-03T19:16:34.699Z,19.87
2018-11-03T19:19:24.015Z,20.13
2018-11-03T19:22:07.248Z,20.37
2018-11-03T19:24:49.809Z,21.27
2018-11-03T19:27:33.069Z,20.33
2018-11-03T19:30:15.819Z,19.13
2018-11-03T19:32:58.881Z,19.13
2018-11-03T19:35:41.506Z,20.20
2018-11-03T19:38:24.340Z,20.47
2018-11-03T19:41:08.346Z,19.20
2018-11-03T19:43:52.442Z,20.00
2018-11-03T19:46:34.963Z,19.47
2018-11-03T19:49:17.702Z,19.53
2018-11-03T19:52:02.533Z,20.43
2018-11-03T19:54:44.737Z,20.53
2018-11-03T19:57:27.884Z,19.53
2018-11-03T20:00:13.703Z,19.67
2018-11-03T20:02:59.734Z,20.23
2018-11-03T20:05:41.670Z,19.67
2018-11-03T20:08:25.530Z,19.30
2018-11-03T20:11:08.061Z,19.63
2018-11-03T20:13:49.941Z,21.63
2018-11-03T20:16:33.690Z,20.60
2018-11-03T20:19:16.464Z,20.97
2018-11-03T20:21:58.304Z,20.97
2018-11-03T20:24:40.693Z,22.70
2018-11-03T20:27:23.370Z,22.73
2018-11-03T20:30:08.817Z,21.80
2018-11-03T20:32:50.989Z,21.47
2018-11-03T20:35:34.240Z,21.63
2018-11-03T20:38:16.964Z,21.00
2018-11-03T20:41:00.341Z,21.37
2018-11-03T20:43:42.879Z,20.33
2018-11-03T20:46:25.134Z,21.37
2018-11-03T20:49:08.630Z,21.97
2018-11-03T20:51:51.190Z,22.07
2018-11-03T20:54:34.764Z,20.90
2018-11-03T20:57:17.101Z,20.57
2018-11-03T20:59:59.733Z,20.80
2018-11-03T21:02:42.740Z,18.97
2018-11-03T21:05:25.544Z,19.53
2018-11-03T21:08:08.833Z,20.17
2018-11-03T21:10:52.701Z,19.47
2018-11-03T21:13:35.737Z,20.63
2018-11-03T21:16:18.431Z,19.83
2018-11-03T21:19:00.867Z,20.73
2018-11-03T21:21:44.972Z,19.73
2018-11-03T21:24:28.221Z,20.50
2018-11-03T21:27:11.201Z,22.10
2018-11-03T21:29:53.464Z,21.70
2018-11-03T21:32:36.872Z,21.60
2018-11-03T21:35:20.369Z,21.03
2018-11-03T21:38:03.032Z,20.93
2018-11-03T21:40:46.276Z,23.57
2018-11-03T21:43:28.622Z,22.97
2018-11-03T21:46:12.233Z,23.57
2018-11-03T21:48:55.060Z,24.13
2018-11-03T21:51:36.844Z,24.40
2018-11-03T21:54:20.361Z,24.97
2018-11-03T21:57:03.633Z,24.40
2018-11-03T21:59:47.080Z,25.00
2018-11-03T22:02:29.457Z,25.63
2018-11-03T22:05:13.545Z,26.57
2018-11-03T22:07:55.901Z,25.87
2018-11-03T22:10:39.249Z,24.87
2018-11-03T22:13:21.428Z,26.23
2018-11-03T22:16:04.577Z,24.33
2018-11-03T22:18:46.942Z,25.33
2018-11-03T22:21:30.596Z,25.57
2018-11-03T22:24:12.998Z,26.17
2018-11-03T22:26:56.325Z,27.47
2018-11-03T22:29:39.140Z,26.43
2018-11-03T22:32:22.161Z,26.30
2018-11-03T22:35:05.577Z,27.40
2018-11-03T22:37:48.333Z,25.90
2018-11-03T22:40:30.486Z,28.20
2018-11-03T22:43:14.704Z,27.03
2018-11-03T22:45:57.546Z,26.47
2018-11-03T22:48:40.564Z,25.30
2018-11-03T22:51:23.528Z,27.77
2018-11-03T22:54:07.133Z,27.93
2018-11-03T22:56:48.950Z,25.87
2018-11-03T22:59:32.576Z,27.67
2018-11-03T23:02:15.544Z,27.63
2018-11-03T23:04:58.933Z,26.20
2018-11-03T23:07:41.602Z,26.27
2018-11-03T23:10:24.520Z,28.83
2018-11-03T23:13:06.979Z,28.23
2018-11-03T23:15:48.887Z,29.50
2018-11-03T23:18:31.244Z,29.33
2018-11-03T23:21:14.233Z,32.93
2018-11-03T23:23:57.232Z,33.37
2018-11-03T23:26:39.817Z,32.67
2018-11-03T23:29:23.541Z,33.97
2018-11-03T23:32:05.681Z,32.83
2018-11-03T23:34:47.853Z,33.70
2018-11-03T23:37:30.733Z,34.23
2018-11-03T23:43:50.494Z,34.83
2018-11-03T23:46:31.775Z,34.37
2018-11-03T23:49:13.236Z,35.27
2018-11-03T23:51:54.992Z,34.83
2018-11-03T23:54:36.417Z,35.97
2018-11-03T23:57:17.858Z,33.20
